Terminal Aerodrome Forecast
Issued by NWS

Home | Current Version | Previous Version | Text Only | Print | Product List | Glossary On
Versions: 1 2 3 4 5 6 7 8 9 10 11 12 13 14
000
FTUS45 KGJT 232323
TAFTEX
TAF
KTEX 232323Z 2400/2424 32003KT P6SM SCT150
     FM240200 09004KT P6SM SCT200
     FM241700 28005KT P6SM VCSH BKN150=

USA.gov is the U.S. government's official web portal to all federal, state and local government web resources and services.